createdAt,value
2019-01-29T15:46:57.332Z,5.35
2019-01-29T15:49:27.494Z,5.12
2019-01-29T15:51:57.621Z,5.41
2019-01-29T15:54:27.789Z,5.12
2019-01-29T15:56:57.931Z,5.41
2019-01-29T15:59:28.099Z,5.17
2019-01-29T16:01:58.235Z,5.18
2019-01-29T16:47:20.485Z,26.31
2019-01-29T16:49:50.875Z,25.89
2019-01-29T16:53:30.024Z,25.40
2019-01-29T16:56:00.197Z,22.86
2019-01-29T16:58:30.335Z,18.71
2019-01-29T17:01:01.004Z,14.90
2019-01-29T17:03:31.156Z,11.75
2019-01-29T17:06:01.366Z,9.66
2019-01-29T17:08:32.510Z,7.92
2019-01-29T17:11:02.733Z,6.51
2019-01-29T17:13:33.011Z,5.31
2019-01-29T17:16:03.187Z,5.24
2019-01-29T17:18:33.313Z,5.42
2019-01-29T17:21:03.486Z,5.22
2019-01-29T17:23:33.620Z,5.43
2019-01-29T17:26:03.801Z,5.15
2019-01-29T17:28:33.921Z,5.42
2019-01-29T17:31:04.130Z,5.19
2019-01-29T17:33:34.273Z,5.41
2019-01-29T17:36:04.441Z,5.24
2019-01-29T17:38:34.564Z,5.48
2019-01-29T17:41:05.000Z,5.17
2019-01-29T17:43:35.128Z,5.46
2019-01-29T17:46:05.310Z,5.17
2019-01-29T17:48:35.440Z,5.46
2019-01-29T17:51:05.620Z,5.15
2019-01-29T17:53:37.346Z,5.46
2019-01-29T17:56:07.613Z,5.12
2019-01-29T17:58:37.736Z,5.46
2019-01-29T18:01:07.901Z,5.15
2019-01-29T18:03:38.040Z,5.39
2019-01-29T18:06:08.223Z,5.21
2019-01-29T18:08:38.375Z,5.34
2019-01-29T18:11:09.604Z,5.28
2019-01-29T18:13:39.739Z,5.37
2019-01-29T18:16:09.925Z,5.25
2019-01-29T18:18:40.049Z,5.46
2019-01-29T18:21:10.234Z,5.15
2019-01-29T18:23:40.377Z,5.43
2019-01-29T18:26:10.583Z,5.14
2019-01-29T18:28:40.722Z,5.42
2019-01-29T18:31:10.913Z,5.18
2019-01-29T18:33:41.041Z,5.41
2019-01-29T18:36:11.226Z,5.19
2019-01-29T18:38:41.362Z,5.38
2019-01-29T18:41:11.541Z,5.25
2019-01-29T18:43:41.675Z,5.43
2019-01-29T18:46:11.886Z,5.22
2019-01-29T18:48:42.008Z,5.42
2019-01-29T18:51:12.231Z,5.19
2019-01-29T18:53:42.360Z,5.48
2019-01-29T18:56:12.548Z,5.14
2019-01-29T18:58:42.771Z,5.45
2019-01-29T19:01:13.908Z,5.10
2019-01-29T19:03:44.050Z,5.52
2019-01-29T19:06:14.231Z,5.10
2019-01-29T19:08:46.044Z,5.46
2019-01-29T19:11:16.228Z,5.08
2019-01-29T19:13:46.370Z,5.52
2019-01-29T19:16:16.582Z,5.12
2019-01-29T19:18:46.751Z,5.43
2019-01-29T19:21:16.968Z,5.12
2019-01-29T19:23:48.313Z,5.45
2019-01-29T19:26:18.491Z,5.11
2019-01-29T19:28:48.617Z,5.76
2019-01-29T19:31:18.792Z,6.65
2019-01-29T19:33:48.920Z,7.39
2019-01-29T19:36:19.117Z,7.39
2019-01-29T19:38:49.272Z,6.48
2019-01-29T19:41:19.445Z,5.56
2019-01-29T19:43:49.577Z,5.11
2019-01-29T19:46:19.827Z,5.52
2019-01-29T19:48:49.962Z,5.11
2019-01-29T19:51:20.156Z,5.69
2019-01-29T19:53:50.276Z,6.60
2019-01-29T19:56:20.475Z,7.37
2019-01-29T19:58:50.606Z,7.88
2019-01-29T20:01:20.790Z,7.67
2019-01-29T20:03:50.918Z,6.66
2019-01-29T20:06:21.471Z,5.66
2019-01-29T20:08:51.607Z,5.06
2019-01-29T20:11:21.785Z,5.55
2019-01-29T20:13:51.930Z,5.12
2019-01-29T20:16:23.090Z,5.48
2019-01-29T20:18:53.225Z,5.14
2019-01-29T20:21:23.401Z,5.70
2019-01-29T20:23:55.163Z,6.62
2019-01-29T20:26:25.370Z,7.34
2019-01-29T20:28:55.518Z,7.90
2019-01-29T20:31:27.323Z,7.62
2019-01-29T20:33:59.073Z,6.62
2019-01-29T20:36:29.250Z,5.66
2019-01-29T20:39:01.560Z,5.11
2019-01-29T20:41:33.023Z,5.55
2019-01-29T20:44:03.194Z,5.11
2019-01-29T20:46:33.527Z,5.65
2019-01-29T20:49:03.660Z,6.57
2019-01-29T20:51:33.850Z,7.41
2019-01-29T20:54:03.983Z,7.99
2019-01-29T20:56:34.214Z,7.72
2019-01-29T20:59:04.368Z,6.85
2019-01-29T21:01:35.846Z,5.98
2019-01-29T21:04:06.009Z,5.22
2019-01-29T21:06:36.204Z,5.46
2019-01-29T21:09:08.459Z,5.34
2019-01-29T21:11:38.665Z,5.43
2019-01-29T21:14:08.793Z,5.43
2019-01-29T21:16:38.985Z,5.22
2019-01-29T21:19:09.120Z,5.46
2019-01-29T21:21:39.296Z,5.19
2019-01-29T21:24:09.429Z,5.45
2019-01-29T21:26:39.609Z,5.21
2019-01-29T21:29:09.747Z,5.45
2019-01-29T21:31:39.926Z,5.17
2019-01-29T21:34:10.054Z,5.42
2019-01-29T21:36:40.228Z,5.22
2019-01-29T21:39:10.362Z,5.46
2019-01-29T21:41:40.543Z,5.18
2019-01-29T21:44:10.675Z,5.48
2019-01-29T21:46:40.887Z,5.15
2019-01-29T21:49:11.007Z,5.79
2019-01-29T21:51:41.197Z,6.86
2019-01-29T21:54:11.328Z,7.85
2019-01-29T21:56:41.519Z,7.96
2019-01-29T21:59:13.472Z,7.20
2019-01-29T22:01:44.312Z,6.42
2019-01-29T22:04:14.480Z,5.70
2019-01-29T22:06:44.648Z,5.12
2019-01-29T22:09:14.807Z,5.53
2019-01-29T22:11:44.977Z,5.15
2019-01-29T22:14:15.138Z,5.67
2019-01-29T22:16:45.320Z,6.80
2019-01-29T22:19:15.485Z,7.63
2019-01-29T22:21:45.652Z,8.28
2019-01-29T22:24:15.823Z,8.04
2019-01-29T22:26:45.999Z,7.06
2019-01-29T22:29:23.214Z,6.07
2019-01-29T22:31:48.045Z,5.18
2019-01-29T22:34:18.207Z,5.43
2019-01-29T22:36:48.383Z,6.48
2019-01-29T22:39:18.543Z,7.27
2019-01-29T22:41:48.715Z,7.86
2019-01-29T22:44:18.874Z,7.58
2019-01-29T22:46:49.055Z,6.56
2019-01-29T22:49:19.210Z,5.56
2019-01-29T22:51:49.383Z,5.12
2019-01-29T22:54:19.564Z,5.46
2019-01-29T22:56:49.808Z,5.14
2019-01-29T22:59:19.967Z,5.41
2019-01-29T23:01:50.888Z,5.22
2019-01-29T23:04:21.054Z,5.49
2019-01-29T23:06:53.242Z,5.14
2019-01-29T23:09:23.364Z,5.87
2019-01-29T23:11:53.543Z,6.85
2019-01-29T23:14:23.669Z,7.65
2019-01-29T23:16:53.838Z,7.61
2019-01-29T23:19:23.965Z,6.71
2019-01-29T23:21:54.142Z,5.92
2019-01-29T23:24:24.274Z,5.21
2019-01-29T23:26:55.417Z,5.50
2019-01-29T23:29:25.546Z,5.28
2019-01-29T23:31:55.712Z,5.43
2019-01-29T23:34:25.836Z,6.36
2019-01-29T23:36:56.015Z,7.23
2019-01-29T23:39:26.144Z,7.76
2019-01-29T23:41:56.324Z,7.48
2019-01-29T23:44:26.454Z,6.36
2019-01-29T23:46:56.655Z,5.28
2019-01-29T23:49:26.797Z,5.21
2019-01-29T23:51:57.062Z,5.31
2019-01-29T23:54:27.200Z,5.25
2019-01-29T23:56:57.383Z,5.28
2019-01-29T23:59:27.542Z,5.32
